Time,TemperatureF,DewpointF,PressureIn,WindDirection,WindDirectionDegrees,WindSpeedMPH,WindSpeedGustMPH,Humidity,HourlyPrecipIn,Conditions,Clouds,dailyrainin,SoftwareType,DateUTC
2013-06-26 00:02:00,67.7,65.0,29.75,West,260,0.0,2.0,91,0.01,,,0.05,weatherlink.com 1.10,2013-06-26 04:02:00,
2013-06-26 00:17:00,67.5,66.0,29.74,West,260,0.0,0.0,93,0.00,,,0.05,weatherlink.com 1.10,2013-06-26 04:17:00,
2013-06-26 00:32:00,67.0,65.0,29.74,NW,325,0.0,0.0,93,0.00,,,0.05,weatherlink.com 1.10,2013-06-26 04:32:00,
2013-06-26 00:47:00,66.9,65.0,29.74,NE,42,0.0,0.0,93,0.00,,,0.05,weatherlink.com 1.10,2013-06-26 04:47:00,
2013-06-26 01:02:00,66.6,65.0,29.73,NE,42,0.0,0.0,94,0.00,,,0.00,weatherlink.com 1.10,2013-06-26 05:02:00,
2013-06-26 01:17:00,66.3,65.0,29.74,NE,42,0.0,0.0,94,0.00,,,0.00,weatherlink.com 1.10,2013-06-26 05:17:00,
2013-06-26 01:32:00,66.2,65.0,29.74,NE,42,0.0,0.0,94,0.00,,,0.00,weatherlink.com 1.10,2013-06-26 05:32:00,
2013-06-26 01:47:00,66.2,65.0,29.73,NE,42,0.0,0.0,94,0.00,,,0.00,weatherlink.com 1.10,2013-06-26 05:47:00,
2013-06-26 02:02:00,66.0,65.0,29.73,NE,42,0.0,0.0,95,0.00,,,0.00,weatherlink.com 1.10,2013-06-26 06:02:00,
2013-06-26 02:17:00,66.1,64.0,29.73,NE,42,0.0,2.0,94,0.00,,,0.00,weatherlink.com 1.10,2013-06-26 06:17:00,
2013-06-26 02:32:00,66.0,65.0,29.72,NE,42,0.0,2.0,95,0.00,,,0.00,weatherlink.com 1.10,2013-06-26 06:32:00,
2013-06-26 02:47:00,66.1,65.0,29.73,WNW,294,1.0,2.0,95,0.00,,,0.00,weatherlink.com 1.10,2013-06-26 06:47:00,
2013-06-26 03:02:00,66.0,64.0,29.73,WNW,294,0.0,2.0,94,0.00,,,0.00,weatherlink.com 1.10,2013-06-26 07:02:00,
2013-06-26 03:17:00,65.6,64.0,29.73,WNW,294,1.0,2.0,94,0.00,,,0.00,weatherlink.com 1.10,2013-06-26 07:17:00,
2013-06-26 03:32:00,65.1,63.0,29.73,NW,316,1.0,3.0,94,0.00,,,0.00,weatherlink.com 1.10,2013-06-26 07:32:00,
2013-06-26 03:47:00,65.1,63.0,29.73,NE,53,0.0,4.0,93,0.00,,,0.00,weatherlink.com 1.10,2013-06-26 07:47:00,
2013-06-26 04:02:00,65.1,63.0,29.73,NE,35,1.0,1.0,93,0.00,,,0.00,weatherlink.com 1.10,2013-06-26 08:02:00,
2013-06-26 04:17:00,64.7,63.0,29.72,NE,41,1.0,2.0,94,0.00,,,0.00,weatherlink.com 1.10,2013-06-26 08:17:00,
2013-06-26 04:32:00,64.3,63.0,29.72,NNW,344,0.0,2.0,94,0.00,,,0.00,weatherlink.com 1.10,2013-06-26 08:32:00,
2013-06-26 04:47:00,64.4,62.0,29.73,NE,34,0.0,3.0,93,0.00,,,0.00,weatherlink.com 1.10,2013-06-26 08:47:00,
2013-06-26 05:02:00,64.4,62.0,29.73,NNW,338,0.0,1.0,93,0.00,,,0.00,weatherlink.com 1.10,2013-06-26 09:02:00,
2013-06-26 05:17:00,64.1,62.0,29.73,NNW,338,0.0,0.0,94,0.00,,,0.00,weatherlink.com 1.10,2013-06-26 09:17:00,
2013-06-26 05:32:00,63.9,62.0,29.73,NNW,338,0.0,0.0,94,0.00,,,0.00,weatherlink.com 1.10,2013-06-26 09:32:00,
2013-06-26 05:47:00,63.6,62.0,29.73,NNW,338,0.0,0.0,94,0.00,,,0.00,weatherlink.com 1.10,2013-06-26 09:47:00,
2013-06-26 06:02:00,63.1,61.0,29.74,NNW,338,0.0,0.0,94,0.00,,,0.00,weatherlink.com 1.10,2013-06-26 10:02:00,
2013-06-26 06:17:00,63.3,62.0,29.73,NNW,338,0.0,0.0,95,0.00,,,0.00,weatherlink.com 1.10,2013-06-26 10:17:00,
2013-06-26 06:32:00,64.5,63.0,29.73,NE,45,0.0,0.0,94,0.00,,,0.00,weatherlink.com 1.10,2013-06-26 10:32:00,
2013-06-26 06:47:00,66.5,64.0,29.74,NNW,327,0.0,2.0,90,0.00,,,0.00,weatherlink.com 1.10,2013-06-26 10:47:00,
2013-06-26 07:02:00,68.9,65.0,29.73,North,355,3.0,7.0,86,0.00,,,0.00,weatherlink.com 1.10,2013-06-26 11:02:00,
2013-06-26 07:18:00,70.5,65.0,29.74,North,11,5.0,8.0,82,0.00,,,0.00,weatherlink.com 1.10,2013-06-26 11:18:00,
2013-06-26 07:33:00,71.4,65.0,29.74,NNW,342,4.0,9.0,80,0.00,,,0.00,weatherlink.com 1.10,2013-06-26 11:33:00,
2013-06-26 07:48:00,71.7,65.0,29.74,NNE,28,4.0,10.0,78,0.00,,,0.00,weatherlink.com 1.10,2013-06-26 11:48:00,
2013-06-26 08:03:00,71.5,65.0,29.74,NW,319,0.0,10.0,79,0.00,,,0.00,weatherlink.com 1.10,2013-06-26 12:03:00,
2013-06-26 08:18:00,71.9,65.0,29.74,NNW,343,2.0,10.0,78,0.00,,,0.00,weatherlink.com 1.10,2013-06-26 12:18:00,
2013-06-26 08:33:00,72.8,65.0,29.75,West,268,4.0,10.0,76,0.00,,,0.00,weatherlink.com 1.10,2013-06-26 12:33:00,
2013-06-26 08:48:00,73.7,65.0,29.75,NNW,331,7.0,10.0,74,0.00,,,0.00,weatherlink.com 1.10,2013-06-26 12:48:00,
2013-06-26 09:03:00,73.9,65.0,29.74,NW,325,3.0,11.0,73,0.00,,,0.00,weatherlink.com 1.10,2013-06-26 13:03:00,
2013-06-26 09:18:00,74.0,64.0,29.75,NE,43,5.0,13.0,72,0.00,,,0.00,weatherlink.com 1.10,2013-06-26 13:18:00,
2013-06-26 09:33:00,74.1,65.0,29.75,WNW,287,8.0,13.0,73,0.00,,,0.00,weatherlink.com 1.10,2013-06-26 13:33:00,
2013-06-26 09:48:00,74.6,65.0,29.75,NNW,331,3.0,10.0,71,0.00,,,0.00,weatherlink.com 1.10,2013-06-26 13:48:00,
2013-06-26 10:03:00,73.7,65.0,29.75,NW,322,5.0,8.0,73,0.00,,,0.00,weatherlink.com 1.10,2013-06-26 14:03:00,
2013-06-26 10:18:00,73.1,65.0,29.76,West,267,3.0,9.0,76,0.00,,,0.00,weatherlink.com 1.10,2013-06-26 14:18:00,
2013-06-26 10:33:00,74.9,65.0,29.75,NW,323,7.0,9.0,71,0.00,,,0.00,weatherlink.com 1.10,2013-06-26 14:33:00,
2013-06-26 10:48:00,75.4,65.0,29.75,North,355,8.0,10.0,69,0.00,,,0.00,weatherlink.com 1.10,2013-06-26 14:48:00,
2013-06-26 11:03:00,74.6,64.0,29.75,NNE,20,2.0,9.0,70,0.00,,,0.00,weatherlink.com 1.10,2013-06-26 15:03:00,
2013-06-26 11:18:00,74.4,64.0,29.76,NNW,331,7.0,11.0,69,0.00,,,0.00,weatherlink.com 1.10,2013-06-26 15:18:00,
2013-06-26 11:33:00,74.6,64.0,29.75,North,355,4.0,9.0,69,0.00,,,0.00,weatherlink.com 1.10,2013-06-26 15:33:00,
2013-06-26 11:48:00,74.5,64.0,29.75,NNW,345,4.0,7.0,69,0.00,,,0.00,weatherlink.com 1.10,2013-06-26 15:48:00,
2013-06-26 12:03:00,74.5,65.0,29.75,North,349,1.0,7.0,71,0.00,,,0.00,weatherlink.com 1.10,2013-06-26 16:03:00,
2013-06-26 12:18:00,74.1,64.0,29.75,NNW,342,2.0,5.0,71,0.00,,,0.00,weatherlink.com 1.10,2013-06-26 16:18:00,
2013-06-26 12:33:00,73.8,64.0,29.75,NNW,331,0.0,5.0,72,0.00,,,0.00,weatherlink.com 1.10,2013-06-26 16:33:00,
2013-06-26 12:48:00,74.1,65.0,29.76,NW,321,1.0,4.0,72,0.00,,,0.00,weatherlink.com 1.10,2013-06-26 16:48:00,
2013-06-26 13:03:00,74.4,65.0,29.77,WNW,296,0.0,3.0,72,0.00,,,0.00,weatherlink.com 1.10,2013-06-26 17:03:00,
2013-06-26 13:18:00,74.8,66.0,29.77,NNE,16,0.0,3.0,74,0.00,,,0.00,weatherlink.com 1.10,2013-06-26 17:18:00,
2013-06-26 13:33:00,74.6,66.0,29.77,NW,317,0.0,4.0,74,0.00,,,0.00,weatherlink.com 1.10,2013-06-26 17:33:00,
2013-06-26 13:48:00,74.5,67.0,29.77,NNE,28,1.0,3.0,76,0.00,,,0.00,weatherlink.com 1.10,2013-06-26 17:48:00,
2013-06-26 14:03:00,75.0,65.0,29.77,NNE,28,1.0,2.0,72,0.00,,,0.00,weatherlink.com 1.10,2013-06-26 18:03:00,
2013-06-26 14:18:00,75.1,67.0,29.76,NNE,28,1.0,2.0,76,0.00,,,0.00,weatherlink.com 1.10,2013-06-26 18:18:00,
2013-06-26 14:33:00,74.5,67.0,29.77,NE,46,0.0,2.0,77,0.00,,,0.00,weatherlink.com 1.10,2013-06-26 18:33:00,
2013-06-26 14:48:00,73.9,66.0,29.77,NW,309,1.0,5.0,75,0.00,,,0.00,weatherlink.com 1.10,2013-06-26 18:48:00,
2013-06-26 15:03:00,73.9,66.0,29.76,WNW,286,0.0,3.0,77,0.00,,,0.00,weatherlink.com 1.10,2013-06-26 19:03:00,
2013-06-26 15:18:00,74.2,66.0,29.75,East,88,1.0,3.0,76,0.00,,,0.00,weatherlink.com 1.10,2013-06-26 19:18:00,
2013-06-26 15:33:00,74.7,66.0,29.75,NNE,25,1.0,3.0,74,0.00,,,0.00,weatherlink.com 1.10,2013-06-26 19:33:00,
2013-06-26 15:48:00,75.3,66.0,29.75,NNW,336,1.0,5.0,73,0.00,,,0.00,weatherlink.com 1.10,2013-06-26 19:48:00,
2013-06-26 16:03:00,75.7,65.0,29.74,North,351,3.0,6.0,70,0.00,,,0.00,weatherlink.com 1.10,2013-06-26 20:03:00,
2013-06-26 16:18:00,76.9,66.0,29.74,NNE,31,1.0,2.0,69,0.00,,,0.00,weatherlink.com 1.10,2013-06-26 20:18:00,
2013-06-26 16:33:00,77.1,65.0,29.74,NNW,341,2.0,8.0,66,0.00,,,0.00,weatherlink.com 1.10,2013-06-26 20:33:00,
2013-06-26 16:48:00,76.8,65.0,29.74,North,355,4.0,5.0,66,0.00,,,0.00,weatherlink.com 1.10,2013-06-26 20:48:00,
2013-06-26 17:03:00,77.4,65.0,29.73,NNE,15,2.0,4.0,65,0.00,,,0.00,weatherlink.com 1.10,2013-06-26 21:03:00,
2013-06-26 17:18:00,77.7,65.0,29.73,North,5,0.0,6.0,65,0.00,,,0.00,weatherlink.com 1.10,2013-06-26 21:18:00,
2013-06-26 17:33:00,78.6,64.0,29.73,North,360,1.0,6.0,62,0.00,,,0.00,weatherlink.com 1.10,2013-06-26 21:33:00,
2013-06-26 17:49:00,79.3,65.0,29.73,NNE,22,0.0,4.0,62,0.00,,,0.00,weatherlink.com 1.10,2013-06-26 21:49:00,
2013-06-26 18:04:00,79.9,66.0,29.74,North,5,4.0,6.0,62,0.00,,,0.00,weatherlink.com 1.10,2013-06-26 22:04:00,
2013-06-26 18:19:00,80.6,65.0,29.73,SE,142,2.0,7.0,60,0.00,,,0.00,weatherlink.com 1.10,2013-06-26 22:19:00,
2013-06-26 18:34:00,80.1,65.0,29.74,WNW,283,0.0,4.0,60,0.00,,,0.00,weatherlink.com 1.10,2013-06-26 22:34:00,
2013-06-26 18:49:00,79.2,65.0,29.74,NNW,343,1.0,4.0,63,0.00,,,0.00,weatherlink.com 1.10,2013-06-26 22:49:00,
2013-06-26 19:04:00,79.8,65.0,29.74,NNE,31,0.0,2.0,60,0.00,,,0.00,weatherlink.com 1.10,2013-06-26 23:04:00,
2013-06-26 19:19:00,79.1,65.0,29.74,NE,47,0.0,1.0,63,0.00,,,0.00,weatherlink.com 1.10,2013-06-26 23:19:00,
2013-06-26 19:34:00,79.0,67.0,29.75,NE,47,0.0,1.0,67,0.00,,,0.00,weatherlink.com 1.10,2013-06-26 23:34:00,
2013-06-26 19:49:00,77.1,67.0,29.74,NE,47,0.0,1.0,71,0.00,,,0.00,weatherlink.com 1.10,2013-06-26 23:49:00,
2013-06-26 20:04:00,75.0,67.0,29.74,NE,47,0.0,1.0,76,0.00,,,0.00,weatherlink.com 1.10,2013-06-27 00:04:00,
2013-06-26 20:19:00,74.2,67.0,29.74,NE,47,0.0,0.0,79,0.00,,,0.00,weatherlink.com 1.10,2013-06-27 00:19:00,
2013-06-26 20:34:00,72.3,67.0,29.74,NE,47,0.0,1.0,83,0.00,,,0.00,weatherlink.com 1.10,2013-06-27 00:34:00,
2013-06-26 20:49:00,70.6,66.0,29.74,NE,47,0.0,0.0,85,0.00,,,0.00,weatherlink.com 1.10,2013-06-27 00:49:00,
2013-06-26 21:04:00,69.3,65.0,29.74,NE,47,0.0,1.0,87,0.00,,,0.00,weatherlink.com 1.10,2013-06-27 01:04:00,
2013-06-26 21:19:00,67.7,64.0,29.75,NE,47,0.0,0.0,89,0.00,,,0.00,weatherlink.com 1.10,2013-06-27 01:19:00,
2013-06-26 21:34:00,66.9,64.0,29.76,NE,47,0.0,0.0,91,0.00,,,0.00,weatherlink.com 1.10,2013-06-27 01:34:00,
2013-06-26 21:49:00,65.9,63.0,29.77,NE,47,0.0,0.0,91,0.00,,,0.00,weatherlink.com 1.10,2013-06-27 01:49:00,
2013-06-26 22:04:00,65.4,63.0,29.78,NE,47,0.0,1.0,91,0.00,,,0.00,weatherlink.com 1.10,2013-06-27 02:04:00,
2013-06-26 22:19:00,64.5,62.0,29.79,NE,47,0.0,0.0,92,0.00,,,0.00,weatherlink.com 1.10,2013-06-27 02:19:00,
2013-06-26 22:34:00,64.1,62.0,29.78,NE,47,0.0,1.0,93,0.00,,,0.00,weatherlink.com 1.10,2013-06-27 02:34:00,
2013-06-26 22:49:00,63.5,61.0,29.78,NE,47,0.0,1.0,92,0.00,,,0.00,weatherlink.com 1.10,2013-06-27 02:49:00,
2013-06-26 23:04:00,63.1,61.0,29.77,NE,47,0.0,2.0,94,0.00,,,0.00,weatherlink.com 1.10,2013-06-27 03:04:00,
2013-06-26 23:19:00,62.8,61.0,29.77,NE,47,0.0,2.0,94,0.00,,,0.00,weatherlink.com 1.10,2013-06-27 03:19:00,
2013-06-26 23:34:00,62.8,61.0,29.78,ESE,123,1.0,1.0,94,0.00,,,0.00,weatherlink.com 1.10,2013-06-27 03:34:00,
2013-06-26 23:49:00,62.3,61.0,29.78,ESE,123,0.0,2.0,94,0.00,,,0.00,weatherlink.com 1.10,2013-06-27 03:49:00,